createdAt,value
2017-09-24T00:00:11.696Z,11.90
2017-09-24T00:02:39.933Z,12.00
2017-09-24T00:05:08.215Z,11.90
2017-09-24T00:07:36.457Z,12.00
2017-09-24T00:10:04.705Z,12.00
2017-09-24T00:12:32.982Z,11.90
2017-09-24T00:15:01.222Z,11.90
2017-09-24T00:17:29.474Z,11.90
2017-09-24T00:19:57.933Z,11.90
2017-09-24T00:22:26.182Z,11.90
2017-09-24T00:24:55.195Z,12.00
2017-09-24T00:27:23.449Z,12.00
2017-09-24T00:29:51.703Z,12.20
2017-09-24T00:32:19.949Z,12.20
2017-09-24T00:34:48.989Z,12.40
2017-09-24T00:37:17.250Z,12.30
2017-09-24T00:39:45.489Z,12.30
2017-09-24T00:42:13.765Z,12.20
2017-09-24T00:44:42.026Z,12.10
2017-09-24T00:47:10.294Z,12.10
2017-09-24T00:49:39.349Z,12.00
2017-09-24T00:52:07.629Z,12.00
2017-09-24T00:54:35.879Z,12.00
2017-09-24T00:57:04.165Z,12.00
2017-09-24T00:59:32.412Z,12.00
2017-09-24T01:02:01.086Z,12.00
2017-09-24T01:04:29.350Z,12.00
2017-09-24T01:06:57.613Z,12.00
2017-09-24T01:09:26.759Z,12.00
2017-09-24T01:11:55.068Z,11.90
2017-09-24T01:14:23.297Z,12.00
2017-09-24T01:16:51.880Z,12.00
2017-09-24T01:19:20.165Z,12.00
2017-09-24T01:21:48.413Z,12.00
2017-09-24T01:24:16.674Z,12.10
2017-09-24T01:26:44.950Z,12.20
2017-09-24T01:29:13.194Z,12.20
2017-09-24T01:31:41.433Z,12.10
2017-09-24T01:34:09.814Z,12.10
2017-09-24T01:36:38.070Z,12.10
2017-09-24T01:39:06.342Z,12.10
2017-09-24T01:41:34.940Z,12.20
2017-09-24T01:44:03.966Z,12.10
2017-09-24T01:46:32.213Z,12.10
2017-09-24T01:49:00.860Z,12.10
2017-09-24T01:51:29.118Z,12.00
2017-09-24T01:53:58.121Z,12.10
2017-09-24T01:56:26.405Z,12.10
2017-09-24T01:58:54.887Z,12.30
2017-09-24T02:01:23.137Z,12.20
2017-09-24T02:03:51.414Z,12.20
2017-09-24T02:06:19.661Z,12.10
2017-09-24T02:08:47.915Z,12.10
2017-09-24T02:11:16.189Z,12.10
2017-09-24T02:13:44.441Z,12.10
2017-09-24T02:16:12.676Z,12.00
2017-09-24T02:18:40.959Z,12.00
2017-09-24T02:21:09.197Z,11.90
2017-09-24T02:23:37.451Z,11.90
2017-09-24T02:26:05.845Z,11.90
2017-09-24T02:28:34.089Z,11.90
2017-09-24T02:31:02.461Z,11.90
2017-09-24T02:33:30.786Z,11.80
2017-09-24T02:35:59.005Z,11.90
2017-09-24T02:38:27.245Z,11.80
2017-09-24T02:40:55.533Z,11.80
2017-09-24T02:43:25.277Z,11.80
2017-09-24T02:45:53.561Z,11.80
2017-09-24T02:48:22.046Z,11.80
2017-09-24T02:50:50.289Z,11.80
2017-09-24T02:53:19.374Z,11.80
2017-09-24T02:55:47.640Z,11.80
2017-09-24T02:58:15.886Z,11.80
2017-09-24T03:00:44.135Z,11.90
2017-09-24T03:03:12.533Z,11.80
2017-09-24T03:05:40.784Z,11.80
2017-09-24T03:08:09.033Z,11.90
2017-09-24T03:10:37.317Z,11.80
2017-09-24T03:13:05.557Z,11.80
2017-09-24T03:15:33.809Z,11.80
2017-09-24T03:18:02.301Z,11.80
2017-09-24T03:20:30.545Z,11.80
2017-09-24T03:22:58.794Z,11.80
2017-09-24T03:25:27.187Z,11.70
2017-09-24T03:27:55.425Z,11.80
2017-09-24T03:30:23.671Z,11.80
2017-09-24T03:32:52.050Z,11.80
2017-09-24T03:35:20.288Z,11.70
2017-09-24T03:37:48.534Z,11.70
2017-09-24T03:40:17.585Z,11.60
2017-09-24T03:42:45.821Z,11.60
2017-09-24T03:45:14.070Z,11.60
2017-09-24T03:47:42.345Z,11.70
2017-09-24T03:50:10.593Z,11.70
2017-09-24T03:52:38.839Z,11.80
2017-09-24T03:55:07.102Z,11.80
2017-09-24T03:57:35.340Z,11.80
2017-09-24T04:00:03.601Z,11.90
2017-09-24T04:02:32.073Z,11.90
2017-09-24T04:05:00.346Z,11.80
2017-09-24T04:07:28.581Z,11.70
2017-09-24T04:09:57.622Z,11.60
2017-09-24T04:12:25.869Z,11.50
2017-09-24T04:14:54.138Z,11.60
2017-09-24T04:17:22.601Z,11.50
2017-09-24T04:19:50.849Z,11.50
2017-09-24T04:22:19.102Z,11.50
2017-09-24T04:24:47.385Z,11.50
2017-09-24T04:27:15.633Z,11.50
2017-09-24T04:29:43.873Z,11.40
2017-09-24T04:32:12.172Z,11.30
2017-09-24T04:34:40.413Z,11.30
2017-09-24T04:37:08.654Z,11.30
2017-09-24T04:39:36.932Z,11.30
2017-09-24T04:42:05.178Z,11.20
2017-09-24T04:44:33.590Z,11.30
2017-09-24T04:47:01.857Z,11.20
2017-09-24T04:49:30.114Z,11.20
2017-09-24T04:51:58.357Z,11.10
2017-09-24T04:54:26.641Z,11.10
2017-09-24T04:56:54.890Z,11.10
2017-09-24T04:59:23.130Z,11.10
2017-09-24T05:01:51.425Z,11.20
2017-09-24T05:04:19.681Z,11.10
2017-09-24T05:06:47.934Z,11.00
2017-09-24T05:09:16.226Z,11.00
2017-09-24T05:11:45.232Z,10.90
2017-09-24T05:14:13.489Z,10.80
2017-09-24T05:16:41.785Z,10.80
2017-09-24T05:19:10.025Z,10.80
2017-09-24T05:21:38.869Z,10.70
2017-09-24T05:24:07.159Z,10.60
2017-09-24T05:26:35.413Z,10.60
2017-09-24T05:29:03.657Z,10.60
2017-09-24T05:31:32.697Z,10.70
2017-09-24T05:34:00.950Z,10.70
2017-09-24T05:36:29.253Z,10.70
2017-09-24T05:38:57.549Z,10.70
2017-09-24T05:41:25.806Z,10.70
2017-09-24T05:43:54.073Z,10.70
2017-09-24T05:46:22.360Z,10.70
2017-09-24T05:48:50.602Z,10.70
2017-09-24T05:51:18.854Z,10.80
2017-09-24T05:53:47.137Z,10.80
2017-09-24T05:56:15.378Z,10.90
2017-09-24T05:58:43.626Z,10.90
2017-09-24T06:01:11.897Z,10.90
2017-09-24T06:03:40.149Z,10.90
2017-09-24T06:06:08.397Z,10.90
2017-09-24T06:08:36.835Z,11.00
2017-09-24T06:11:05.854Z,11.00
2017-09-24T06:13:34.108Z,11.00
2017-09-24T06:16:02.385Z,11.10
2017-09-24T06:18:30.638Z,11.20
2017-09-24T06:20:58.885Z,11.40
2017-09-24T06:23:27.183Z,11.40
2017-09-24T06:25:55.422Z,11.40
2017-09-24T06:28:23.671Z,11.50
2017-09-24T06:30:51.968Z,11.50
2017-09-24T06:33:20.217Z,11.60
2017-09-24T06:35:48.457Z,11.70
2017-09-24T06:38:16.757Z,11.90
2017-09-24T06:40:44.996Z,12.10
2017-09-24T06:43:13.726Z,12.10
2017-09-24T06:45:42.786Z,12.10
2017-09-24T06:48:11.026Z,12.00
2017-09-24T06:50:39.277Z,12.20
2017-09-24T06:53:07.557Z,12.30
2017-09-24T06:55:35.797Z,12.40
2017-09-24T06:58:04.058Z,12.50
2017-09-24T07:00:32.385Z,12.60
2017-09-24T07:03:00.634Z,12.50
2017-09-24T07:05:28.886Z,12.60
2017-09-24T07:07:57.933Z,12.60
2017-09-24T07:10:27.692Z,12.60
2017-09-24T07:12:55.941Z,12.60
2017-09-24T07:15:24.216Z,12.80
2017-09-24T07:17:52.461Z,12.80
2017-09-24T07:20:20.718Z,12.80
2017-09-24T07:22:49.001Z,12.90
2017-09-24T07:25:17.246Z,13.00
2017-09-24T07:27:45.489Z,12.80
2017-09-24T07:30:14.537Z,12.80
2017-09-24T07:32:42.779Z,12.70
2017-09-24T07:35:11.017Z,12.70
2017-09-24T07:37:39.335Z,12.80
2017-09-24T07:40:07.574Z,13.00
2017-09-24T07:42:35.825Z,13.10
2017-09-24T07:45:04.189Z,13.30
2017-09-24T07:47:32.449Z,13.40
2017-09-24T07:50:00.689Z,13.50
2017-09-24T07:52:28.961Z,13.60
2017-09-24T07:54:57.389Z,13.90
2017-09-24T07:57:26.401Z,14.30
2017-09-24T07:59:54.776Z,14.30
2017-09-24T08:02:23.025Z,14.50
2017-09-24T08:04:51.601Z,14.60
2017-09-24T08:07:19.880Z,14.80
2017-09-24T08:09:48.122Z,14.80
2017-09-24T08:12:16.370Z,14.60
2017-09-24T08:14:44.649Z,14.60
2017-09-24T08:17:12.897Z,14.80
2017-09-24T08:19:41.125Z,14.90
2017-09-24T08:22:10.162Z,14.90
2017-09-24T08:24:38.393Z,14.80
2017-09-24T08:27:06.630Z,14.80
2017-09-24T08:32:09.599Z,15.00
2017-09-24T08:34:37.864Z,15.20
2017-09-24T08:37:06.106Z,15.20
2017-09-24T08:39:35.106Z,15.40
2017-09-24T08:42:03.389Z,15.40
2017-09-24T08:44:31.637Z,15.50
2017-09-24T08:46:59.869Z,15.50
2017-09-24T08:49:29.005Z,15.40
2017-09-24T08:51:57.240Z,15.40
2017-09-24T08:54:25.481Z,15.40
2017-09-24T08:56:53.754Z,15.40
2017-09-24T08:59:22.005Z,15.60
2017-09-24T09:01:51.003Z,15.70
2017-09-24T09:04:19.270Z,15.60
2017-09-24T09:06:47.520Z,15.60
2017-09-24T09:09:15.778Z,15.70
2017-09-24T09:11:44.079Z,15.60
2017-09-24T09:14:14.201Z,15.50
2017-09-24T09:16:46.997Z,15.40
2017-09-24T09:19:16.597Z,15.40
2017-09-24T09:21:45.789Z,15.30
2017-09-24T09:24:14.033Z,15.60
2017-09-24T09:26:42.368Z,15.70
2017-09-24T09:29:10.654Z,15.80
2017-09-24T09:31:39.720Z,15.90
2017-09-24T09:34:20.450Z,15.90
2017-09-24T09:36:48.681Z,15.80
2017-09-24T09:39:17.096Z,15.90
2017-09-24T09:41:45.529Z,16.00
2017-09-24T09:44:26.748Z,16.00
2017-09-24T09:49:56.372Z,16.00
2017-09-24T09:52:26.372Z,16.00
2017-09-24T09:54:54.594Z,16.00
2017-09-24T09:57:23.593Z,16.30
2017-09-24T09:59:51.856Z,16.30
2017-09-24T10:02:20.921Z,16.50
2017-09-24T10:04:54.502Z,16.70
2017-09-24T10:07:35.441Z,16.80
2017-09-24T10:10:09.106Z,16.80
2017-09-24T10:12:39.668Z,17.00
2017-09-24T10:15:09.328Z,17.20
2017-09-24T10:17:37.573Z,17.10
2017-09-24T10:20:05.817Z,17.40
2017-09-24T10:22:35.157Z,17.60
2017-09-24T10:25:03.393Z,17.70
2017-09-24T10:27:32.401Z,17.30
2017-09-24T10:30:12.506Z,17.30
2017-09-24T10:32:40.769Z,17.30
2017-09-24T10:35:09.006Z,17.50
2017-09-24T10:37:37.302Z,17.60
2017-09-24T10:40:06.306Z,17.70
2017-09-24T10:42:34.537Z,17.60
2017-09-24T10:45:03.849Z,17.70
2017-09-24T10:47:32.144Z,17.60
2017-09-24T10:50:00.385Z,17.70
2017-09-24T10:52:28.669Z,17.70
2017-09-24T10:54:58.418Z,17.80
2017-09-24T10:57:26.621Z,17.80
2017-09-24T10:59:54.925Z,17.80
2017-09-24T11:02:23.157Z,17.70
2017-09-24T11:04:51.393Z,17.70
2017-09-24T11:07:19.774Z,17.70
2017-09-24T11:09:48.037Z,17.80
2017-09-24T11:12:16.273Z,17.90
2017-09-24T11:14:44.558Z,17.80
2017-09-24T11:17:12.794Z,17.80
2017-09-24T11:19:41.022Z,17.70
2017-09-24T11:22:10.056Z,17.70
2017-09-24T11:24:38.297Z,17.70
2017-09-24T11:27:06.545Z,17.70
2017-09-24T11:29:34.825Z,17.70
2017-09-24T11:32:03.077Z,17.50
2017-09-24T11:34:31.313Z,17.50
2017-09-24T11:36:59.637Z,17.40
2017-09-24T11:39:27.878Z,17.50
2017-09-24T11:41:56.130Z,17.50
2017-09-24T11:44:24.391Z,17.60
2017-09-24T11:46:52.626Z,17.60
2017-09-24T11:49:20.869Z,17.60
2017-09-24T11:51:49.901Z,17.50
2017-09-24T11:54:18.133Z,17.40
2017-09-24T11:56:46.476Z,17.50
2017-09-24T11:59:14.729Z,17.50
2017-09-24T12:01:43.731Z,17.40
2017-09-24T12:04:11.961Z,17.40
2017-09-24T12:06:41.001Z,17.60
2017-09-24T12:09:09.228Z,17.50
2017-09-24T12:11:37.460Z,17.60
2017-09-24T12:14:06.626Z,17.60
2017-09-24T12:16:35.650Z,17.70
2017-09-24T12:19:03.898Z,17.60
2017-09-24T12:21:32.929Z,18.10
2017-09-24T12:24:01.173Z,18.00
2017-09-24T12:26:29.418Z,18.40
2017-09-24T12:28:57.690Z,18.60
2017-09-24T12:31:25.929Z,19.00
2017-09-24T12:33:54.185Z,19.20
2017-09-24T12:36:22.491Z,19.20
2017-09-24T12:38:50.733Z,19.20
2017-09-24T12:41:18.983Z,19.10
2017-09-24T12:43:47.229Z,19.00
2017-09-24T12:46:15.469Z,18.80
2017-09-24T12:48:44.478Z,18.80
2017-09-24T12:51:12.873Z,18.70
2017-09-24T12:53:41.118Z,18.70
2017-09-24T12:56:09.396Z,18.80
2017-09-24T12:58:37.697Z,18.80
2017-09-24T13:01:06.692Z,19.00
2017-09-24T13:03:34.930Z,19.00
2017-09-24T13:06:03.969Z,19.60
2017-09-24T13:08:32.214Z,19.50
2017-09-24T13:11:00.449Z,19.80
2017-09-24T13:13:28.856Z,20.00
2017-09-24T13:15:57.092Z,20.10
2017-09-24T13:18:25.333Z,20.30
2017-09-24T13:20:53.743Z,20.60
2017-09-24T13:23:21.981Z,21.10
2017-09-24T13:25:50.221Z,21.30
2017-09-24T13:28:18.497Z,21.30
2017-09-24T13:30:46.745Z,21.30
2017-09-24T13:33:14.985Z,21.10
2017-09-24T13:35:44.130Z,21.50
2017-09-24T13:38:12.379Z,21.50
2017-09-24T13:40:40.618Z,21.70
2017-09-24T13:43:08.904Z,21.70
2017-09-24T13:45:37.146Z,21.60
2017-09-24T13:48:05.393Z,21.10
2017-09-24T13:50:33.690Z,20.90
2017-09-24T13:53:01.939Z,20.50
2017-09-24T13:55:30.165Z,20.10
2017-09-24T13:57:58.470Z,19.70
2017-09-24T14:00:26.709Z,19.60
2017-09-24T14:02:54.960Z,19.70
2017-09-24T14:05:23.364Z,19.80
2017-09-24T14:07:51.613Z,19.70
2017-09-24T14:10:23.929Z,19.80
2017-09-24T14:12:53.254Z,19.70
2017-09-24T14:15:21.641Z,19.60
2017-09-24T14:17:49.877Z,19.30
2017-09-24T14:20:18.151Z,19.00
2017-09-24T14:25:24.202Z,18.70
2017-09-24T14:27:52.641Z,18.80
2017-09-24T14:30:20.901Z,18.70
2017-09-24T14:32:50.262Z,18.60
2017-09-24T14:35:18.669Z,18.70
2017-09-24T14:37:46.910Z,18.70
2017-09-24T14:40:15.201Z,18.70
2017-09-24T14:42:43.433Z,18.70
2017-09-24T14:45:11.681Z,18.70
2017-09-24T14:47:39.946Z,18.80
2017-09-24T14:50:08.183Z,18.80
2017-09-24T14:52:36.586Z,18.80
2017-09-24T14:55:05.721Z,18.80
2017-09-24T14:57:34.305Z,18.80
2017-09-24T15:00:03.988Z,18.80
2017-09-24T15:02:32.232Z,18.70
2017-09-24T15:05:00.470Z,18.60
2017-09-24T15:07:28.733Z,18.30
2017-09-24T15:09:57.097Z,18.20
2017-09-24T15:12:25.591Z,18.00
2017-09-24T15:14:53.812Z,18.00
2017-09-24T15:17:22.073Z,18.00
2017-09-24T15:19:50.322Z,18.10
2017-09-24T15:22:18.561Z,18.10
2017-09-24T15:24:46.961Z,18.10
2017-09-24T15:27:15.451Z,18.20
2017-09-24T15:29:43.681Z,18.10
2017-09-24T15:32:11.954Z,17.90
2017-09-24T15:34:40.189Z,17.80
2017-09-24T15:37:08.431Z,17.80
2017-09-24T15:39:36.833Z,17.80
2017-09-24T15:42:05.082Z,17.80
2017-09-24T15:44:33.325Z,17.70
2017-09-24T15:47:01.602Z,17.80
2017-09-24T15:49:29.837Z,17.70
2017-09-24T15:51:58.262Z,17.60
2017-09-24T15:54:28.543Z,17.50
2017-09-24T15:56:56.806Z,17.40
2017-09-24T15:59:25.191Z,17.50
2017-09-24T16:01:53.429Z,17.50
2017-09-24T16:04:21.670Z,17.50
2017-09-24T16:06:49.910Z,17.50
2017-09-24T16:09:18.974Z,17.60
2017-09-24T16:11:47.974Z,17.60
2017-09-24T16:14:16.391Z,17.50
2017-09-24T16:16:44.902Z,17.60
2017-09-24T16:19:13.186Z,17.60
2017-09-24T16:21:41.506Z,17.60
2017-09-24T17:06:33.881Z,15.70
2017-09-24T17:09:03.001Z,15.50
2017-09-24T17:11:31.212Z,15.40
2017-09-24T17:13:59.605Z,15.50
2017-09-24T17:16:27.840Z,15.50
2017-09-24T17:18:56.069Z,15.40
2017-09-24T17:21:24.353Z,15.30
2017-09-24T17:23:53.347Z,15.10
2017-09-24T17:26:21.589Z,15.10
2017-09-24T17:28:50.926Z,15.00
2017-09-24T17:31:19.161Z,14.90
2017-09-24T17:33:47.465Z,14.90
2017-09-24T17:36:15.920Z,14.90
2017-09-24T17:38:44.158Z,14.90
2017-09-24T17:41:12.402Z,14.80
2017-09-24T17:43:40.830Z,14.70
2017-09-24T17:46:09.069Z,14.70
2017-09-24T17:48:37.316Z,14.60
2017-09-24T17:51:05.677Z,14.60
2017-09-24T17:53:33.906Z,14.60
2017-09-24T17:56:02.161Z,14.50
2017-09-24T17:58:30.425Z,14.40
2017-09-24T18:00:58.673Z,14.30
2017-09-24T18:03:27.669Z,14.20
2017-09-24T18:05:56.078Z,14.10
2017-09-24T18:08:24.313Z,14.10
2017-09-24T18:10:52.550Z,14.00
2017-09-24T18:13:20.828Z,13.90
2017-09-24T18:15:49.082Z,13.80
2017-09-24T18:18:17.320Z,13.80
2017-09-24T18:20:46.370Z,13.50
2017-09-24T18:23:14.601Z,13.50
2017-09-24T18:25:42.833Z,13.50
2017-09-24T18:28:11.089Z,13.30
2017-09-24T18:30:40.116Z,13.10
2017-09-24T18:33:08.359Z,13.10
2017-09-24T18:35:36.640Z,13.00
2017-09-24T18:38:04.880Z,13.00
2017-09-24T18:40:33.114Z,12.90
2017-09-24T18:43:01.398Z,12.90
2017-09-24T18:45:29.635Z,13.00
2017-09-24T18:47:58.633Z,12.90
2017-09-24T18:50:27.677Z,12.80
2017-09-24T18:52:56.698Z,12.70
2017-09-24T18:55:24.926Z,12.60
2017-09-24T18:57:53.213Z,12.60
2017-09-24T19:00:21.460Z,12.50
2017-09-24T19:02:49.687Z,12.40
2017-09-24T19:05:17.954Z,12.40
2017-09-24T19:07:46.950Z,12.20
2017-09-24T19:10:15.187Z,12.10
2017-09-24T19:12:43.619Z,12.10
2017-09-24T19:15:11.858Z,12.10
2017-09-24T19:17:40.261Z,12.10
2017-09-24T19:20:08.541Z,12.00
2017-09-24T19:22:37.536Z,11.90
2017-09-24T19:25:05.778Z,11.90
2017-09-24T19:27:34.037Z,11.90
2017-09-24T19:30:03.039Z,11.80
2017-09-24T19:32:31.287Z,11.80
2017-09-24T19:35:00.317Z,11.80
2017-09-24T19:37:28.549Z,11.70
2017-09-24T19:39:56.795Z,11.80
2017-09-24T19:42:25.816Z,11.70
2017-09-24T19:44:54.055Z,11.70
2017-09-24T19:47:22.290Z,11.70
2017-09-24T19:49:51.336Z,11.40
2017-09-24T19:52:19.586Z,11.40
2017-09-24T19:54:47.806Z,11.40
2017-09-24T19:57:16.166Z,11.50
2017-09-24T19:59:44.410Z,11.60
2017-09-24T20:02:13.405Z,11.50
2017-09-24T20:04:42.025Z,11.50
2017-09-24T20:07:10.266Z,11.60
2017-09-24T20:09:38.530Z,11.60
2017-09-24T20:12:06.800Z,11.50
2017-09-24T20:14:35.033Z,11.40
2017-09-24T20:17:03.310Z,11.30
2017-09-24T20:19:31.573Z,11.20
2017-09-24T20:21:59.833Z,11.10
2017-09-24T20:24:28.066Z,11.00
2017-09-24T20:26:56.351Z,10.90
2017-09-24T20:29:24.585Z,10.90
2017-09-24T20:31:52.819Z,10.70
2017-09-24T20:34:21.841Z,10.60
2017-09-24T20:36:50.077Z,10.60
2017-09-24T20:39:18.325Z,10.60
2017-09-24T20:41:47.386Z,10.60
2017-09-24T20:44:15.622Z,10.60
2017-09-24T20:46:43.854Z,10.60
2017-09-24T20:49:12.145Z,10.60
2017-09-24T20:51:40.377Z,10.50
2017-09-24T20:54:08.611Z,10.60
2017-09-24T20:56:37.658Z,10.70
2017-09-24T20:59:05.902Z,10.60
2017-09-24T21:01:34.140Z,10.60
2017-09-24T21:04:02.517Z,10.50
2017-09-24T21:06:30.750Z,10.50
2017-09-24T21:08:58.977Z,10.50
2017-09-24T21:11:28.032Z,10.30
2017-09-24T21:13:56.285Z,10.20
2017-09-24T21:16:24.526Z,10.20
2017-09-24T21:18:52.781Z,10.20
2017-09-24T21:21:21.034Z,10.10
2017-09-24T21:23:49.278Z,10.20
2017-09-24T21:26:18.510Z,10.20
2017-09-24T21:28:46.762Z,10.10
2017-09-24T21:31:14.973Z,10.10
2017-09-24T21:33:44.006Z,10.00
2017-09-24T21:36:12.239Z,10.00
2017-09-24T21:38:40.470Z,10.10
2017-09-24T21:41:09.505Z,10.10
2017-09-24T21:43:37.741Z,10.00
2017-09-24T21:46:05.980Z,10.00
2017-09-24T21:48:35.205Z,9.90
2017-09-24T21:51:03.434Z,9.80
2017-09-24T21:53:31.681Z,9.90
2017-09-24T21:56:00.710Z,9.90
2017-09-24T21:58:28.969Z,9.80
2017-09-24T22:00:57.212Z,9.90
2017-09-24T22:03:25.480Z,10.00
2017-09-24T22:05:53.705Z,9.90
2017-09-24T22:08:22.706Z,9.80
2017-09-24T22:10:50.986Z,9.70
2017-09-24T22:13:19.217Z,9.80
2017-09-24T22:15:47.446Z,9.80
2017-09-24T22:18:15.730Z,9.70
2017-09-24T22:20:44.714Z,9.60
2017-09-24T22:23:12.937Z,9.50
2017-09-24T22:25:41.202Z,9.50
2017-09-24T22:28:10.201Z,9.40
2017-09-24T22:30:39.201Z,9.40
2017-09-24T22:33:07.479Z,9.30
2017-09-24T22:35:35.713Z,9.50
2017-09-24T22:38:04.706Z,9.50
2017-09-24T22:40:32.956Z,9.50
2017-09-24T22:43:01.192Z,9.50
2017-09-24T22:45:29.437Z,9.50
2017-09-24T22:47:57.697Z,9.50
2017-09-24T22:50:25.936Z,9.40
2017-09-24T22:52:54.174Z,9.50
2017-09-24T22:55:22.449Z,9.40
2017-09-24T22:57:50.693Z,9.30
2017-09-24T23:00:18.921Z,9.30
2017-09-24T23:02:47.967Z,9.10
2017-09-24T23:05:16.185Z,9.00
2017-09-24T23:07:44.417Z,9.00
2017-09-24T23:10:12.777Z,9.00
2017-09-24T23:12:41.010Z,9.00
2017-09-24T23:15:09.244Z,9.00
2017-09-24T23:17:37.521Z,9.10
2017-09-24T23:20:05.744Z,9.00
2017-09-24T23:22:35.450Z,9.00
2017-09-24T23:25:03.706Z,9.00
2017-09-24T23:27:32.033Z,8.90
2017-09-24T23:30:00.257Z,8.80
2017-09-24T23:32:28.522Z,8.80
2017-09-24T23:34:56.748Z,8.70
2017-09-24T23:37:24.973Z,8.70
2017-09-24T23:39:53.221Z,8.90
2017-09-24T23:42:21.462Z,8.90
2017-09-24T23:44:49.854Z,8.90
2017-09-24T23:47:19.006Z,8.80
2017-09-24T23:49:47.229Z,8.70
2017-09-24T23:52:15.834Z,8.80
2017-09-24T23:54:44.089Z,8.80
2017-09-24T23:57:12.325Z,8.70
2017-09-24T23:59:40.549Z,8.70
